createdAt,value
2022-08-29T00:00:23.801Z,69.13
2022-08-29T00:02:55.455Z,69.17
2022-08-29T00:05:26.712Z,69.50
2022-08-29T00:07:55.577Z,68.99
2022-08-29T00:10:24.218Z,69.83
2022-08-29T00:12:53.008Z,68.89
2022-08-29T00:15:23.927Z,69.36
2022-08-29T00:17:52.674Z,69.88
2022-08-29T00:20:30.223Z,70.11
2022-08-29T00:23:03.109Z,70.15
2022-08-29T00:25:32.178Z,69.81
2022-08-29T00:28:01.118Z,70.25
2022-08-29T00:30:32.294Z,70.23
2022-08-29T00:33:01.088Z,70.11
2022-08-29T00:35:32.396Z,70.12
2022-08-29T00:38:01.890Z,70.61
2022-08-29T00:40:32.990Z,70.64
2022-08-29T00:43:02.340Z,71.46
2022-08-29T00:45:33.432Z,70.87
2022-08-29T00:48:05.453Z,72.25
2022-08-29T00:50:38.129Z,72.34
2022-08-29T00:53:10.181Z,71.63
2022-08-29T00:55:40.330Z,71.93
2022-08-29T00:58:13.360Z,72.00
2022-08-29T01:00:47.641Z,72.45
2022-08-29T01:03:16.401Z,71.25
2022-08-29T01:05:46.281Z,71.67
2022-08-29T01:08:15.168Z,71.71
2022-08-29T01:11:01.446Z,72.26
2022-08-29T01:13:35.041Z,71.52
2022-08-29T01:16:06.840Z,72.18
2022-08-29T01:18:38.265Z,73.54
2022-08-29T01:21:14.777Z,73.11
2022-08-29T01:23:47.315Z,72.04
2022-08-29T01:26:17.735Z,72.21
2022-08-29T01:28:49.562Z,72.59
2022-08-29T01:31:37.876Z,72.99
2022-08-29T01:34:11.532Z,71.57
2022-08-29T01:36:43.565Z,73.09
2022-08-29T01:39:12.749Z,72.41
2022-08-29T01:41:43.488Z,72.18
2022-08-29T01:44:13.197Z,72.09
2022-08-29T01:46:41.838Z,73.94
2022-08-29T01:49:11.771Z,73.43
2022-08-29T01:51:41.684Z,72.44
2022-08-29T01:54:12.287Z,72.55
2022-08-29T01:56:44.504Z,73.65
2022-08-29T01:59:16.332Z,74.03
2022-08-29T02:01:48.766Z,72.80
2022-08-29T02:04:17.818Z,73.61
2022-08-29T02:06:46.426Z,72.97
2022-08-29T02:09:17.344Z,73.13
2022-08-29T02:11:48.285Z,72.89
2022-08-29T02:14:19.461Z,73.30
2022-08-29T02:16:49.008Z,74.98
2022-08-29T02:19:19.285Z,73.31
2022-08-29T02:21:48.204Z,72.84
2022-08-29T02:24:26.231Z,73.16
2022-08-29T02:26:57.796Z,72.92
2022-08-29T02:29:26.489Z,72.87
2022-08-29T02:32:08.019Z,72.58
2022-08-29T02:34:37.073Z,72.98
2022-08-29T02:37:07.518Z,73.51
2022-08-29T02:39:36.182Z,73.50
2022-08-29T02:42:06.905Z,73.38
2022-08-29T02:44:35.770Z,74.20
2022-08-29T02:47:04.711Z,74.23
2022-08-29T02:49:33.378Z,73.71
2022-08-29T02:52:06.729Z,75.27
2022-08-29T02:54:35.871Z,74.17
2022-08-29T02:57:07.077Z,73.50
2022-08-29T02:59:35.947Z,74.85
2022-08-29T03:02:05.494Z,74.59
2022-08-29T03:04:36.007Z,75.03
2022-08-29T03:07:05.551Z,74.00
2022-08-29T03:09:34.336Z,74.04
2022-08-29T03:12:02.994Z,74.00
2022-08-29T03:14:33.219Z,74.33
2022-08-29T03:17:01.832Z,74.87
2022-08-29T03:19:30.452Z,73.28
2022-08-29T03:22:00.474Z,73.54
2022-08-29T03:24:29.232Z,73.95
2022-08-29T03:26:58.764Z,73.66
2022-08-29T03:29:28.030Z,74.60
2022-08-29T03:31:58.742Z,74.06
2022-08-29T03:34:27.918Z,74.12
2022-08-29T03:36:56.860Z,73.10
2022-08-29T03:39:25.733Z,73.23
2022-08-29T03:41:54.682Z,73.45
2022-08-29T03:44:24.505Z,73.43
2022-08-29T03:46:53.944Z,74.08
2022-08-29T03:49:24.875Z,72.60
2022-08-29T03:51:53.486Z,72.39
2022-08-29T03:54:22.735Z,72.16
2022-08-29T03:56:51.583Z,70.35
2022-08-29T03:59:21.125Z,71.75
2022-08-29T04:01:50.763Z,70.23
2022-08-29T04:04:34.921Z,71.17
2022-08-29T04:07:06.415Z,69.57
2022-08-29T04:09:35.305Z,68.90
2022-08-29T04:12:04.499Z,69.94
2022-08-29T04:14:33.649Z,69.93
2022-08-29T04:17:04.300Z,69.20
2022-08-29T04:19:33.393Z,69.61
2022-08-29T04:22:02.297Z,68.80
2022-08-29T04:24:32.864Z,69.24
2022-08-29T04:27:01.573Z,69.15
2022-08-29T04:29:30.452Z,70.48
2022-08-29T04:31:59.104Z,69.62
2022-08-29T04:34:27.866Z,70.46
2022-08-29T04:36:56.818Z,70.41
2022-08-29T04:39:27.052Z,68.79
2022-08-29T04:41:57.307Z,69.75
2022-08-29T04:44:25.933Z,68.78
2022-08-29T04:46:54.578Z,69.16
2022-08-29T04:49:23.507Z,68.88
2022-08-29T04:51:53.783Z,68.98
2022-08-29T04:54:22.405Z,69.29
2022-08-29T04:56:51.374Z,69.49
2022-08-29T04:59:27.654Z,67.34
2022-08-29T05:01:57.408Z,68.28
2022-08-29T05:04:26.344Z,68.79
2022-08-29T05:06:54.956Z,68.57
2022-08-29T05:09:23.943Z,68.32
2022-08-29T05:11:52.622Z,69.14
2022-08-29T05:14:21.226Z,69.00
2022-08-29T05:16:51.560Z,69.40
2022-08-29T05:19:20.585Z,70.14
2022-08-29T05:21:50.032Z,69.06
2022-08-29T05:24:19.545Z,68.14
2022-08-29T05:26:48.155Z,69.21
2022-08-29T05:29:16.922Z,68.52
2022-08-29T05:31:46.288Z,69.81
2022-08-29T05:34:34.020Z,69.09
2022-08-29T05:37:05.919Z,66.90
2022-08-29T05:39:35.371Z,67.41
2022-08-29T05:42:05.249Z,63.82
2022-08-29T05:44:35.625Z,64.28
2022-08-29T05:47:05.446Z,64.80
2022-08-29T05:49:36.599Z,65.65
2022-08-29T05:52:06.756Z,65.07
2022-08-29T05:54:38.138Z,65.04
2022-08-29T05:57:07.363Z,66.16
2022-08-29T05:59:36.422Z,67.05
2022-08-29T06:02:06.040Z,66.43
2022-08-29T06:04:36.607Z,67.21
2022-08-29T06:07:05.857Z,66.66
2022-08-29T06:09:35.450Z,67.55
2022-08-29T06:12:05.046Z,67.04
2022-08-29T06:14:33.903Z,66.46
2022-08-29T06:17:02.818Z,67.39
2022-08-29T06:19:35.045Z,66.71
2022-08-29T06:22:09.565Z,66.41
2022-08-29T06:24:40.499Z,67.08
2022-08-29T06:27:14.112Z,65.47
2022-08-29T06:29:43.950Z,65.50
2022-08-29T06:32:12.790Z,65.76
2022-08-29T06:34:41.936Z,64.71
2022-08-29T06:37:12.749Z,65.24
2022-08-29T06:39:41.595Z,65.58
2022-08-29T06:42:10.425Z,63.83
2022-08-29T06:44:44.364Z,63.86
2022-08-29T06:47:13.306Z,64.36
2022-08-29T06:49:42.194Z,65.83
2022-08-29T06:52:13.410Z,64.83
2022-08-29T06:54:42.299Z,65.34
2022-08-29T06:57:13.204Z,66.58
2022-08-29T06:59:42.151Z,65.91
2022-08-29T07:02:10.835Z,65.90
2022-08-29T07:04:39.518Z,64.92
2022-08-29T07:07:08.598Z,63.37
2022-08-29T07:09:41.039Z,63.84
2022-08-29T07:12:09.882Z,63.46
2022-08-29T07:14:38.822Z,62.54
2022-08-29T07:17:07.529Z,62.91
2022-08-29T07:19:36.400Z,63.15
2022-08-29T07:22:08.089Z,62.04
2022-08-29T07:24:38.353Z,61.77
2022-08-29T07:27:07.500Z,61.74
2022-08-29T07:29:36.160Z,63.00
2022-08-29T07:32:05.242Z,61.58
2022-08-29T07:34:34.216Z,62.51
2022-08-29T07:37:05.783Z,62.12
2022-08-29T07:39:35.065Z,61.93
2022-08-29T07:42:05.460Z,61.30
2022-08-29T07:44:34.785Z,61.84
2022-08-29T07:47:03.707Z,61.41
2022-08-29T07:49:40.919Z,61.00
2022-08-29T07:52:10.220Z,60.40
2022-08-29T07:54:38.915Z,60.19
2022-08-29T07:57:08.871Z,60.14
2022-08-29T07:59:38.141Z,59.77
2022-08-29T08:02:06.902Z,59.33
2022-08-29T08:04:35.921Z,59.11
2022-08-29T08:07:05.035Z,59.78
2022-08-29T08:09:42.667Z,59.83
2022-08-29T08:12:12.643Z,59.44
2022-08-29T08:14:41.308Z,59.48
2022-08-29T08:17:10.210Z,58.31
2022-08-29T08:19:39.457Z,59.15
2022-08-29T08:22:08.075Z,57.93
2022-08-29T08:24:37.046Z,58.83
2022-08-29T08:27:06.146Z,57.98
2022-08-29T08:29:36.350Z,56.98
2022-08-29T08:32:05.442Z,56.53
2022-08-29T08:34:35.812Z,56.74
2022-08-29T08:37:08.211Z,55.62
2022-08-29T08:39:37.259Z,56.68
2022-08-29T08:42:13.608Z,56.29
2022-08-29T08:45:06.859Z,56.20
2022-08-29T08:47:40.308Z,56.63
2022-08-29T08:50:13.525Z,56.95
2022-08-29T08:52:47.097Z,56.30
2022-08-29T08:55:25.592Z,56.52
2022-08-29T08:58:02.550Z,55.33
2022-08-29T09:00:38.883Z,54.69
2022-08-29T09:03:18.036Z,55.06
2022-08-29T09:05:58.724Z,53.83
2022-08-29T09:08:29.281Z,54.80
2022-08-29T09:11:01.848Z,54.68
2022-08-29T09:13:38.641Z,54.43
2022-08-29T09:16:16.444Z,54.08
2022-08-29T09:18:53.914Z,54.39
2022-08-29T09:21:42.279Z,54.47
2022-08-29T09:24:15.976Z,53.64
2022-08-29T09:26:44.705Z,53.87
2022-08-29T09:29:14.161Z,53.85
2022-08-29T09:31:44.712Z,54.14
2022-08-29T09:34:15.577Z,53.59
2022-08-29T09:36:47.913Z,53.38
2022-08-29T09:39:21.478Z,52.86
2022-08-29T09:41:52.941Z,52.24
2022-08-29T09:44:25.977Z,52.78
2022-08-29T09:47:14.586Z,53.84
2022-08-29T09:50:03.775Z,53.22
2022-08-29T09:52:32.704Z,53.15
2022-08-29T09:55:19.107Z,52.88
2022-08-29T09:57:51.599Z,52.85
2022-08-29T10:00:26.997Z,53.29
2022-08-29T10:02:59.361Z,53.70
2022-08-29T10:05:36.162Z,53.02
2022-08-29T10:08:06.841Z,50.83
2022-08-29T10:10:36.575Z,53.02
2022-08-29T10:13:10.196Z,52.63
2022-08-29T10:15:50.791Z,52.85
2022-08-29T10:18:34.106Z,51.84
2022-08-29T10:21:17.784Z,51.26
2022-08-29T10:23:56.395Z,51.00
2022-08-29T10:26:33.386Z,51.25
2022-08-29T10:29:09.559Z,49.57
2022-08-29T10:31:41.484Z,48.69
2022-08-29T10:34:22.552Z,49.10
2022-08-29T10:36:55.977Z,47.61
2022-08-29T10:39:34.411Z,47.57
2022-08-29T10:42:07.424Z,48.27
2022-08-29T10:44:44.627Z,47.76
2022-08-29T10:47:30.040Z,48.08
2022-08-29T10:50:12.853Z,47.39
2022-08-29T10:52:54.130Z,46.98
2022-08-29T10:55:32.441Z,46.68
2022-08-29T10:58:04.902Z,46.05
2022-08-29T11:00:40.973Z,46.71
2022-08-29T11:03:15.241Z,47.62
2022-08-29T11:05:48.114Z,46.78
2022-08-29T11:08:22.877Z,45.74
2022-08-29T11:10:53.489Z,47.39
2022-08-29T11:13:26.032Z,47.32
2022-08-29T11:16:02.109Z,46.43
2022-08-29T11:18:35.302Z,45.59
2022-08-29T11:21:29.020Z,45.70
2022-08-29T11:24:03.512Z,45.63
2022-08-29T11:26:42.825Z,47.03
2022-08-29T11:29:17.463Z,45.28
2022-08-29T11:48:47.658Z,41.58
2022-08-29T11:51:35.952Z,41.58
2022-08-29T11:54:54.085Z,44.28
2022-08-29T11:57:48.912Z,43.63
2022-08-29T12:00:51.359Z,43.74
2022-08-29T12:03:56.080Z,43.26
2022-08-29T12:06:53.902Z,43.50
2022-08-29T12:09:32.640Z,44.20
2022-08-29T12:12:36.023Z,43.56
2022-08-29T12:15:46.050Z,43.15
2022-08-29T12:18:45.774Z,43.25
2022-08-29T12:21:45.593Z,43.50
2022-08-29T12:24:38.855Z,42.51
2022-08-29T12:27:23.091Z,43.89
2022-08-29T12:29:53.351Z,42.29
2022-08-29T12:32:40.152Z,43.13
2022-08-29T12:35:42.315Z,43.79
2022-08-29T12:38:28.123Z,41.75
2022-08-29T12:41:07.101Z,40.81
2022-08-29T12:43:39.821Z,40.51
2022-08-29T12:46:14.073Z,39.84
2022-08-29T12:48:56.129Z,40.29
2022-08-29T12:51:39.121Z,41.11
2022-08-29T12:54:11.334Z,38.79
2022-08-29T12:56:43.571Z,39.80
2022-08-29T12:59:18.860Z,39.27
2022-08-29T13:01:49.511Z,37.99
2022-08-29T13:04:21.914Z,38.35
2022-08-29T13:06:56.189Z,39.23
2022-08-29T13:09:28.058Z,38.35
2022-08-29T13:12:11.626Z,38.36
2022-08-29T13:14:52.745Z,37.90
2022-08-29T13:17:23.573Z,38.72
2022-08-29T13:20:30.006Z,37.75
2022-08-29T13:23:20.834Z,38.41
2022-08-29T13:25:54.619Z,39.22
2022-08-29T13:28:29.866Z,40.18
2022-08-29T13:31:22.542Z,40.03
2022-08-29T13:34:22.011Z,39.71
2022-08-29T13:37:10.496Z,40.41
2022-08-29T13:39:47.014Z,40.48
2022-08-29T13:42:23.966Z,40.58
2022-08-29T13:45:05.771Z,40.79
2022-08-29T13:47:43.409Z,39.67
2022-08-29T13:50:15.210Z,39.73
2022-08-29T13:52:44.122Z,39.36
2022-08-29T13:55:12.819Z,39.26
2022-08-29T13:57:44.512Z,38.32
2022-08-29T14:00:14.608Z,38.40
2022-08-29T14:02:45.409Z,38.51
2022-08-29T14:05:14.645Z,35.97
2022-08-29T14:07:45.073Z,35.79
2022-08-29T14:10:16.867Z,35.47
2022-08-29T14:12:48.209Z,35.68
2022-08-29T14:15:18.929Z,36.06
2022-08-29T14:17:48.911Z,36.00
2022-08-29T14:20:19.273Z,36.30
2022-08-29T14:22:48.087Z,35.13
2022-08-29T14:25:19.991Z,34.93
2022-08-29T14:27:50.357Z,35.18
2022-08-29T14:30:20.855Z,35.25
2022-08-29T14:32:50.033Z,35.74
2022-08-29T14:35:26.138Z,34.97
2022-08-29T14:37:57.165Z,34.86
2022-08-29T14:40:26.264Z,34.11
2022-08-29T14:43:00.077Z,34.53
2022-08-29T14:45:30.679Z,34.20
2022-08-29T14:48:00.012Z,34.31
2022-08-29T14:50:28.666Z,34.26
2022-08-29T14:52:57.245Z,33.70
2022-08-29T14:55:26.342Z,33.78
2022-08-29T14:57:55.221Z,34.79
2022-08-29T15:00:28.912Z,34.32
2022-08-29T15:02:57.897Z,35.06
2022-08-29T15:05:26.624Z,34.77
2022-08-29T15:07:55.934Z,35.89
2022-08-29T15:10:25.990Z,35.69
2022-08-29T15:12:54.651Z,35.59
2022-08-29T15:15:29.765Z,36.27
2022-08-29T15:18:01.891Z,37.16
2022-08-29T15:20:36.359Z,37.07
2022-08-29T15:23:08.059Z,37.52
2022-08-29T15:25:36.874Z,37.63
2022-08-29T15:28:06.878Z,37.19
2022-08-29T15:30:37.106Z,37.86
2022-08-29T15:33:05.870Z,38.29
2022-08-29T15:35:34.589Z,38.67
2022-08-29T15:38:03.524Z,39.00
2022-08-29T15:40:32.424Z,38.74
2022-08-29T15:43:01.156Z,39.50
2022-08-29T15:45:30.228Z,39.14
2022-08-29T15:48:01.292Z,38.70
2022-08-29T15:50:30.501Z,39.04
2022-08-29T15:52:59.166Z,39.38
2022-08-29T15:55:27.854Z,39.00
2022-08-29T15:57:56.777Z,39.17
2022-08-29T16:00:29.765Z,39.29
2022-08-29T16:03:03.362Z,39.74
2022-08-29T16:05:33.218Z,39.61
2022-08-29T16:08:04.804Z,40.48
2022-08-29T16:10:34.694Z,39.26
2022-08-29T16:13:04.909Z,40.37
2022-08-29T16:15:35.198Z,40.08
2022-08-29T16:18:05.808Z,41.17
2022-08-29T16:20:34.853Z,40.61
2022-08-29T16:23:04.744Z,40.33
2022-08-29T16:25:34.237Z,40.39
2022-08-29T16:28:03.443Z,40.45
2022-08-29T16:30:35.042Z,40.85
2022-08-29T16:33:12.012Z,41.22
2022-08-29T16:35:40.876Z,41.21
2022-08-29T16:38:09.508Z,41.42
2022-08-29T16:40:38.430Z,41.29
2022-08-29T16:43:07.459Z,41.29
2022-08-29T16:45:36.220Z,40.89
2022-08-29T16:48:15.565Z,41.91
2022-08-29T16:50:47.760Z,42.35
2022-08-29T16:53:16.417Z,42.33
2022-08-29T16:55:45.117Z,43.81
2022-08-29T16:58:31.617Z,44.15
2022-08-29T17:01:00.267Z,45.07
2022-08-29T17:03:29.195Z,45.48
2022-08-29T17:05:59.177Z,46.37
2022-08-29T17:08:27.092Z,46.80
2022-08-29T17:10:55.519Z,46.86
2022-08-29T17:13:23.559Z,45.58
2022-08-29T17:15:51.551Z,45.37
2022-08-29T17:18:20.473Z,45.56
2022-08-29T17:20:49.471Z,45.16
2022-08-29T17:23:19.938Z,45.21
2022-08-29T17:25:48.816Z,44.89
2022-08-29T17:28:18.643Z,44.58
2022-08-29T17:30:48.967Z,45.48
2022-08-29T17:33:18.040Z,45.86
2022-08-29T17:35:47.708Z,44.08
2022-08-29T17:38:16.916Z,44.44
2022-08-29T17:40:49.170Z,43.68
2022-08-29T17:43:20.134Z,45.72
2022-08-29T17:45:49.560Z,45.50
2022-08-29T17:48:19.438Z,45.21
2022-08-29T17:50:48.216Z,46.55
2022-08-29T17:53:21.287Z,46.07
2022-08-29T17:55:51.509Z,46.10
2022-08-29T17:58:21.782Z,46.21
2022-08-29T18:00:51.648Z,46.29
2022-08-29T18:03:20.740Z,46.58
2022-08-29T18:05:49.377Z,47.39
2022-08-29T18:08:18.140Z,47.13
2022-08-29T18:10:47.593Z,46.97
2022-08-29T18:13:21.441Z,46.99
2022-08-29T18:15:52.636Z,46.59
2022-08-29T18:18:22.269Z,47.21
2022-08-29T18:20:51.418Z,47.93
2022-08-29T18:23:20.056Z,47.91
2022-08-29T18:25:48.949Z,48.85
2022-08-29T18:28:19.578Z,48.32
2022-08-29T18:30:48.385Z,48.97
2022-08-29T18:33:17.249Z,48.18
2022-08-29T18:35:46.174Z,48.75
2022-08-29T18:38:17.659Z,49.15
2022-08-29T18:40:47.668Z,48.84
2022-08-29T18:43:23.671Z,49.74
2022-08-29T18:45:52.871Z,49.63
2022-08-29T18:48:21.646Z,49.80
2022-08-29T18:50:50.278Z,49.82
2022-08-29T18:53:20.717Z,50.04
2022-08-29T18:55:52.641Z,50.21
2022-08-29T18:58:24.738Z,49.85
2022-08-29T19:00:54.422Z,50.14
2022-08-29T19:03:23.594Z,50.71
2022-08-29T19:05:53.979Z,50.48
2022-08-29T19:08:25.633Z,50.99
2022-08-29T19:10:55.652Z,50.48
2022-08-29T19:13:26.581Z,50.10
2022-08-29T19:16:00.274Z,50.52
2022-08-29T19:18:29.314Z,51.23
2022-08-29T19:21:02.775Z,50.63
2022-08-29T19:23:32.888Z,50.31
2022-08-29T19:26:01.866Z,50.69
2022-08-29T19:28:32.095Z,50.84
2022-08-29T19:31:02.569Z,50.28
2022-08-29T19:33:32.105Z,50.48
2022-08-29T19:36:01.731Z,50.35
2022-08-29T19:38:31.646Z,50.59
2022-08-29T19:41:00.750Z,50.74
2022-08-29T19:43:32.524Z,50.77
2022-08-29T19:46:02.558Z,51.51
2022-08-29T19:48:31.304Z,51.17
2022-08-29T19:50:59.930Z,50.99
2022-08-29T19:53:28.917Z,51.03
2022-08-29T19:55:57.992Z,52.03
2022-08-29T19:58:31.539Z,52.12
2022-08-29T20:01:07.501Z,52.04
2022-08-29T20:03:39.177Z,52.24
2022-08-29T20:06:08.069Z,51.95
2022-08-29T20:08:37.420Z,52.25
2022-08-29T20:11:06.891Z,52.37
2022-08-29T20:13:36.361Z,52.12
2022-08-29T20:16:12.477Z,53.03
2022-08-29T20:18:41.940Z,53.11
2022-08-29T20:21:11.740Z,54.15
2022-08-29T20:23:41.541Z,53.52
2022-08-29T20:26:19.657Z,53.34
2022-08-29T20:28:49.440Z,53.54
2022-08-29T20:31:20.475Z,54.20
2022-08-29T20:33:49.343Z,54.31
2022-08-29T20:36:38.643Z,53.87
2022-08-29T20:39:08.761Z,54.44
2022-08-29T20:41:38.109Z,54.83
2022-08-29T20:44:09.874Z,55.16
2022-08-29T20:46:41.369Z,55.23
2022-08-29T20:49:10.811Z,55.68
2022-08-29T20:51:41.045Z,55.13
2022-08-29T20:54:09.702Z,55.67
2022-08-29T20:56:38.348Z,55.44
2022-08-29T20:59:07.261Z,56.10
2022-08-29T21:01:36.316Z,55.75
2022-08-29T21:04:24.879Z,55.57
2022-08-29T21:06:55.322Z,55.86
2022-08-29T21:09:24.106Z,56.28
2022-08-29T21:11:53.399Z,56.21
2022-08-29T21:14:23.446Z,56.72
2022-08-29T21:16:52.268Z,57.07
2022-08-29T21:19:23.025Z,56.64
2022-08-29T21:21:52.201Z,56.35
2022-08-29T21:24:21.536Z,56.05
2022-08-29T21:26:50.520Z,56.94
2022-08-29T21:29:22.043Z,57.33
2022-08-29T21:31:52.193Z,57.30
2022-08-29T21:34:23.443Z,57.47
2022-08-29T21:36:52.173Z,57.49
2022-08-29T21:39:28.012Z,57.66
2022-08-29T21:42:02.644Z,57.72
2022-08-29T21:44:32.031Z,58.62
2022-08-29T21:47:01.189Z,58.11
2022-08-29T21:49:31.399Z,58.29
2022-08-29T21:52:01.250Z,58.59
2022-08-29T21:54:29.871Z,58.33
2022-08-29T21:56:58.572Z,58.43
2022-08-29T21:59:28.009Z,58.70
2022-08-29T22:01:57.064Z,58.58
2022-08-29T22:04:28.442Z,58.58
2022-08-29T22:06:59.683Z,58.34
2022-08-29T22:09:29.161Z,58.96
2022-08-29T22:11:57.812Z,58.32
2022-08-29T22:14:47.761Z,60.07
2022-08-29T22:17:16.383Z,59.54
2022-08-29T22:19:45.219Z,59.47
2022-08-29T22:22:16.371Z,59.30
2022-08-29T22:24:46.223Z,59.26
2022-08-29T22:27:14.807Z,59.19
2022-08-29T22:29:43.813Z,58.84
2022-08-29T22:32:13.133Z,58.87
2022-08-29T22:34:42.036Z,59.31
2022-08-29T22:37:10.629Z,59.32
2022-08-29T22:39:41.131Z,59.23
2022-08-29T22:42:10.320Z,59.61
2022-08-29T22:45:02.339Z,59.47
2022-08-29T22:47:28.427Z,59.28
2022-08-29T22:49:57.631Z,59.45
2022-08-29T22:52:26.238Z,59.48
2022-08-29T22:54:56.156Z,59.46
2022-08-29T22:57:25.077Z,59.42
2022-08-29T22:59:53.672Z,59.68
2022-08-29T23:02:22.425Z,59.69
2022-08-29T23:04:52.339Z,59.54
2022-08-29T23:07:21.413Z,60.17
2022-08-29T23:09:50.748Z,60.04
2022-08-29T23:12:22.439Z,60.03
2022-08-29T23:14:51.128Z,60.45
2022-08-29T23:17:21.038Z,60.82
2022-08-29T23:19:49.959Z,60.92
2022-08-29T23:22:19.010Z,60.94
2022-08-29T23:24:57.966Z,60.70
2022-08-29T23:27:29.971Z,60.47
2022-08-29T23:29:59.446Z,60.84
2022-08-29T23:32:28.898Z,61.07
2022-08-29T23:34:57.703Z,60.69
2022-08-29T23:37:26.694Z,60.91
2022-08-29T23:40:03.551Z,60.72
2022-08-29T23:42:35.068Z,60.17
2022-08-29T23:45:03.819Z,60.06
2022-08-29T23:47:32.858Z,59.86
2022-08-29T23:50:03.496Z,59.97
2022-08-29T23:52:32.442Z,60.39
2022-08-29T23:55:01.912Z,60.01
2022-08-29T23:57:30.533Z,60.58
